Gunn City, Missouri
Current Conditions -  °F | °C
As of 4:15 PM on Thursday 18 Dec 2014 (Local Time) from KRCM Reporting Station
Haze Haze  
Wind Chill: 32°   Ceiling: 600
Heat Index: 32°   Visibility: 5mi
Dew Point: 32°   Wind: 3mph
Humidity: 100%   Direction: 40°NE
Pressure: 30.21"   Gusts: NA
Location:  38.5641°N, 94.1793°W
Report Text: KRCM 182215Z AUTO 04003KT 5SM BR OVC006 00/00 A3021 RMK AO2
Loading
Personal Weather Stations






























Interactive Weather Map New forecast layout! Learn more

10-Day Weather Forecast

Advertisements
Track Severe Weather on mobile